Time;durP1;ratioP1;P1;durP2;ratioP2;P2;SDS_P1;SDS_P2;PMS_P1;PMS_P2;Temp;Humidity;BMP_temperature;BMP_pressure;BME280_temperature;BME280_humidity;BME280_pressure;Samples;Min_cycle;Max_cycle;Signal;HPM_P1;HPM_P2
2023/10/30 00:01:01;;;;;;;;;;;;;;;16.51;54.91;98932.25;4962938;28;6851;-74
2023/10/30 00:03:29;;;;;;;;;;;;;;;16.51;54.93;98941.72;4965212;28;7082;-73
2023/10/30 00:05:55;;;;;;;;;;;;;;;16.49;55.29;98954.66;4967597;28;6796;-73
2023/10/30 00:08:22;;;;;;;;;;;;;;;16.49;55.24;98953.81;4970218;28;6884;-73
2023/10/30 00:10:48;;;;;;;;;;;;;;;16.49;55.63;98954.66;4963974;28;6830;-74
2023/10/30 00:13:13;;;;;;;;;;;;;;;16.50;55.32;98955.53;4962405;28;6944;-73
2023/10/30 00:15:39;;;;;;;;;;;;;;;16.50;55.28;98958.97;4971488;28;6768;-73
2023/10/30 00:18:05;;;;;;;;;;;;;;;16.55;55.39;98968.47;4959954;28;7268;-73
2023/10/30 00:20:30;;;;;;;;;;;;;;;16.58;55.96;98973.63;4947099;28;7106;-73
2023/10/30 00:22:56;;;;;;;;;;;;;;;16.62;55.68;98981.38;4964250;28;7094;-73
2023/10/30 00:25:21;;;;;;;;;;;;;;;16.64;55.47;98973.63;4963536;28;6780;-73
2023/10/30 00:27:47;;;;;;;;;;;;;;;16.68;55.73;98979.69;4963993;28;7182;-74
2023/10/30 00:30:13;;;;;;;;;;;;;;;16.71;55.59;98977.97;4959642;28;6782;-73
2023/10/30 00:32:39;;;;;;;;;;;;;;;16.72;55.44;98990.03;4960660;28;6776;-74
2023/10/30 00:35:05;;;;;;;;;;;;;;;16.74;55.63;98990.88;4944742;28;7049;-73
2023/10/30 00:37:31;;;;;;;;;;;;;;;16.75;55.52;98990.03;4953595;28;6981;-74
2023/10/30 00:39:56;;;;;;;;;;;;;;;16.78;55.42;99002.94;4966237;28;6840;-74
2023/10/30 00:42:26;;;;;;;;;;;;;;;16.79;55.53;98991.72;4958962;28;6780;-74
2023/10/30 00:44:51;;;;;;;;;;;;;;;16.80;55.12;98995.19;4961944;28;6981;-73
2023/10/30 00:47:17;;;;;;;;;;;;;;;16.84;55.28;98998.66;4961831;28;6931;-73
2023/10/30 00:49:43;;;;;;;;;;;;;;;16.85;55.35;99008.13;4934887;28;7257;-74
2023/10/30 00:52:08;;;;;;;;;;;;;;;16.87;55.18;99015.03;4962434;28;7210;-73
2023/10/30 00:54:34;;;;;;;;;;;;;;;16.88;54.83;99021.06;4964400;28;6784;-73
2023/10/30 00:56:59;;;;;;;;;;;;;;;16.88;54.90;99015.88;4967583;28;6926;-73
2023/10/30 00:59:26;;;;;;;;;;;;;;;16.88;55.37;99023.66;4964045;28;6991;-73
2023/10/30 01:01:51;;;;;;;;;;;;;;;16.88;54.74;99006.41;4961200;28;6836;-74
2023/10/30 01:04:17;;;;;;;;;;;;;;;16.91;55.06;99010.72;4977029;28;6978;-74
2023/10/30 01:06:43;;;;;;;;;;;;;;;16.92;54.90;99020.22;4965005;28;7367;-73
2023/10/30 01:09:08;;;;;;;;;;;;;;;16.93;55.01;99019.34;4961337;28;6960;-73
2023/10/30 01:11:34;;;;;;;;;;;;;;;16.93;54.95;99002.09;4964333;28;6772;-74
2023/10/30 01:13:59;;;;;;;;;;;;;;;16.97;54.61;99004.69;4963516;28;6776;-74
2023/10/30 01:16:25;;;;;;;;;;;;;;;16.98;54.49;99003.81;4963721;28;6836;-73
2023/10/30 01:18:51;;;;;;;;;;;;;;;16.99;54.48;98992.59;4959181;28;6792;-74
2023/10/30 01:21:17;;;;;;;;;;;;;;;16.98;54.04;98994.31;4958131;28;7369;-73
2023/10/30 01:23:43;;;;;;;;;;;;;;;16.99;54.59;98996.03;4964937;28;6784;-73
2023/10/30 01:26:08;;;;;;;;;;;;;;;16.99;54.28;98990.84;4967288;28;6772;-74
2023/10/30 01:28:34;;;;;;;;;;;;;;;16.99;54.66;98990.00;4962954;28;6772;-74
2023/10/30 01:30:59;;;;;;;;;;;;;;;17.00;54.26;98989.16;4962207;28;6780;-73
2023/10/30 01:33:25;;;;;;;;;;;;;;;17.00;54.33;98992.66;4941700;28;6969;-73
2023/10/30 01:35:51;;;;;;;;;;;;;;;17.00;54.53;98997.81;4958449;28;6845;-74
2023/10/30 01:38:17;;;;;;;;;;;;;;;16.99;54.39;99005.53;4960966;28;6814;-73
2023/10/30 01:40:51;;;;;;;;;;;;;;;16.97;54.21;98992.59;4962622;28;6938;-73
2023/10/30 01:43:33;;;;;;;;;;;;;;;16.96;54.18;98996.03;4964929;28;7119;-74
2023/10/30 01:46:00;;;;;;;;;;;;;;;16.95;54.50;99004.69;4962039;28;7773;-74
2023/10/30 01:48:31;;;;;;;;;;;;;;;16.96;54.18;99006.41;4963864;28;7082;-73
2023/10/30 01:50:59;;;;;;;;;;;;;;;16.96;54.48;99009.00;4962016;28;6804;-74
2023/10/30 01:53:29;;;;;;;;;;;;;;;16.97;54.37;99008.13;4979740;28;7003;-73
2023/10/30 01:55:56;;;;;;;;;;;;;;;16.96;54.12;99003.81;4964336;28;6796;-73
2023/10/30 01:58:26;;;;;;;;;;;;;;;16.97;53.94;98992.59;4964855;28;6812;-73
2023/10/30 02:00:53;;;;;;;;;;;;;;;16.97;54.17;98995.19;4940305;28;7246;-74
2023/10/30 02:03:19;;;;;;;;;;;;;;;16.98;54.51;98993.47;4963551;28;6788;-73
2023/10/30 02:05:45;;;;;;;;;;;;;;;16.96;53.94;98995.19;4963992;28;6876;-74
2023/10/30 02:08:12;;;;;;;;;;;;;;;16.96;53.81;99000.38;4940768;28;7059;-74
2023/10/30 02:10:38;;;;;;;;;;;;;;;16.94;54.06;98997.78;4955786;28;6868;-74
2023/10/30 02:13:07;;;;;;;;;;;;;;;16.92;54.35;98999.50;4966696;28;7025;-74
2023/10/30 02:15:33;;;;;;;;;;;;;;;16.90;54.14;98999.50;4964770;28;6947;-73
2023/10/30 02:17:59;;;;;;;;;;;;;;;16.89;54.23;99008.13;4960988;28;6804;-74
2023/10/30 02:20:26;;;;;;;;;;;;;;;16.89;54.32;99004.66;4956905;28;6784;-74
2023/10/30 02:22:51;;;;;;;;;;;;;;;16.88;54.14;98997.78;4965434;28;6929;-73
2023/10/30 02:25:24;;;;;;;;;;;;;;;16.88;54.42;98997.78;4964490;28;6768;-74
2023/10/30 02:27:51;;;;;;;;;;;;;;;16.87;54.29;99003.81;4979877;28;6823;-73
2023/10/30 02:30:17;;;;;;;;;;;;;;;16.85;54.59;99001.25;4977348;28;6935;-74
2023/10/30 02:32:45;;;;;;;;;;;;;;;16.85;54.22;99000.38;4958772;28;7162;-73
2023/10/30 02:35:16;;;;;;;;;;;;;;;16.84;54.33;99004.66;4963992;28;8755;-74
2023/10/30 02:37:43;;;;;;;;;;;;;;;16.82;54.57;98998.63;4980114;28;7002;-73
2023/10/30 02:40:10;;;;;;;;;;;;;;;16.79;54.47;98999.50;4944019;28;7164;-73
2023/10/30 02:42:38;;;;;;;;;;;;;;;16.77;54.34;99001.22;4957413;28;7321;-74
2023/10/30 02:45:05;;;;;;;;;;;;;;;16.76;54.50;98999.50;4959824;28;7001;-73
2023/10/30 02:47:31;;;;;;;;;;;;;;;16.76;54.59;98994.31;4956907;28;6816;-73
2023/10/30 02:49:57;;;;;;;;;;;;;;;16.77;54.65;98990.03;4966801;28;7180;-73
2023/10/30 02:52:22;;;;;;;;;;;;;;;16.76;54.50;98988.31;4960135;28;7189;-73
2023/10/30 02:54:48;;;;;;;;;;;;;;;16.75;54.30;98987.44;4943205;28;7206;-73
2023/10/30 02:57:14;;;;;;;;;;;;;;;16.74;54.44;98992.59;4952907;28;7375;-73
2023/10/30 02:59:40;;;;;;;;;;;;;;;16.71;54.44;98988.31;4963805;28;6851;-73
2023/10/30 03:02:06;;;;;;;;;;;;;;;16.68;54.35;98982.25;4957581;28;6876;-74
2023/10/30 03:04:32;;;;;;;;;;;;;;;16.66;54.40;98984.84;4964988;28;7297;-74
2023/10/30 03:06:58;;;;;;;;;;;;;;;16.63;54.87;98982.25;4963896;28;6959;-74
2023/10/30 03:09:33;;;;;;;;;;;;;;;16.60;54.74;98983.13;4951061;28;6808;-74
2023/10/30 03:11:58;;;;;;;;;;;;;;;16.58;54.33;98978.81;4962659;28;6886;-73
2023/10/30 03:14:24;;;;;;;;;;;;;;;16.56;54.38;98983.13;4939663;28;7025;-73
2023/10/30 03:16:50;;;;;;;;;;;;;;;16.53;54.58;98976.22;4976490;28;6800;-73
2023/10/30 03:19:18;;;;;;;;;;;;;;;16.51;54.51;98988.28;4958020;28;7055;-72
2023/10/30 03:21:43;;;;;;;;;;;;;;;16.47;55.11;98990.00;4965407;28;6800;-72
2023/10/30 03:24:09;;;;;;;;;;;;;;;16.46;54.61;98992.56;4963877;28;6792;-73
2023/10/30 03:26:35;;;;;;;;;;;;;;;16.43;54.85;99003.78;4965124;28;7122;-72
2023/10/30 03:29:00;;;;;;;;;;;;;;;16.40;55.03;99001.19;4964359;28;9762;-74
2023/10/30 03:31:26;;;;;;;;;;;;;;;16.37;54.91;98998.59;4960231;28;6776;-73
2023/10/30 03:33:52;;;;;;;;;;;;;;;16.35;54.70;98997.75;4958730;28;6784;-73
2023/10/30 03:36:22;;;;;;;;;;;;;;;16.32;55.40;99003.75;4941195;28;6929;-72
2023/10/30 03:38:50;;;;;;;;;;;;;;;16.30;55.11;98999.44;4964647;28;6808;-73
2023/10/30 03:41:17;;;;;;;;;;;;;;;16.26;55.15;99013.22;4943189;28;7004;-72
2023/10/30 03:43:43;;;;;;;;;;;;;;;16.24;55.09;99006.34;4960149;28;6935;-72
2023/10/30 03:46:09;;;;;;;;;;;;;;;16.20;55.07;98999.41;4963024;28;6848;-72
2023/10/30 03:48:34;;;;;;;;;;;;;;;16.21;55.57;99008.91;4959396;28;6796;-74
2023/10/30 03:51:00;;;;;;;;;;;;;;;16.18;55.03;99001.13;4961672;28;6776;-72
2023/10/30 03:53:26;;;;;;;;;;;;;;;16.18;55.30;98995.13;4958393;28;7292;-72
2023/10/30 03:55:51;;;;;;;;;;;;;;;16.17;55.60;99009.75;4938958;28;6968;-72
2023/10/30 03:58:17;;;;;;;;;;;;;;;16.17;56.17;99002.00;4979048;28;6805;-73
2023/10/30 04:00:43;;;;;;;;;;;;;;;16.16;55.39;99010.63;4960616;28;6980;-72
2023/10/30 04:03:08;;;;;;;;;;;;;;;16.15;55.71;99011.47;4964018;28;6779;-72
2023/10/30 04:05:34;;;;;;;;;;;;;;;16.14;55.82;99002.00;4959154;28;6825;-73
2023/10/30 04:08:00;;;;;;;;;;;;;;;16.13;55.32;99002.88;4964391;28;7194;-72
2023/10/30 04:10:26;;;;;;;;;;;;;;;16.12;55.50;98995.94;4954041;28;7106;-73
2023/10/30 04:12:52;;;;;;;;;;;;;;;16.12;55.35;98995.94;4978910;28;7094;-74
2023/10/30 04:15:18;;;;;;;;;;;;;;;16.11;55.67;98999.38;4969716;28;6780;-73
2023/10/30 04:17:46;;;;;;;;;;;;;;;16.10;55.92;98998.53;4936356;28;6964;-73
2023/10/30 04:20:12;;;;;;;;;;;;;;;16.09;55.69;98999.41;4939831;28;6967;-72
2023/10/30 04:22:38;;;;;;;;;;;;;;;16.12;55.81;98997.69;4967487;28;6817;-72
2023/10/30 04:25:08;;;;;;;;;;;;;;;16.10;55.90;98995.97;4963088;28;6951;-73
2023/10/30 04:27:34;;;;;;;;;;;;;;;16.10;55.64;98998.53;4961105;28;6887;-73
2023/10/30 04:30:01;;;;;;;;;;;;;;;16.09;55.62;98985.59;4966622;28;7805;-76
2023/10/30 04:32:26;;;;;;;;;;;;;;;16.09;56.18;98990.78;4960677;28;6829;-76
2023/10/30 04:34:52;;;;;;;;;;;;;;;16.08;55.69;98994.22;4959030;28;7750;-76
2023/10/30 04:37:22;;;;;;;;;;;;;;;16.09;56.23;98990.78;4977029;28;7394;-75
2023/10/30 04:39:48;;;;;;;;;;;;;;;16.07;55.85;99000.25;4996512;23;6958;-75
2023/10/30 04:42:14;;;;;;;;;;;;;;;16.05;55.56;99005.41;4941067;28;6899;-75
2023/10/30 04:44:39;;;;;;;;;;;;;;;16.05;55.91;99004.56;4940843;28;8453;-76
2023/10/30 04:47:07;;;;;;;;;;;;;;;16.02;55.96;99010.56;4945908;28;6780;-76
2023/10/30 04:49:35;;;;;;;;;;;;;;;16.00;56.03;98999.38;4944440;28;7019;-76
2023/10/30 04:52:04;;;;;;;;;;;;;;;15.99;55.69;99004.53;4942998;28;6939;-75
2023/10/30 04:54:30;;;;;;;;;;;;;;;15.95;55.80;99014.00;4944972;28;7062;-76
2023/10/30 04:56:56;;;;;;;;;;;;;;;15.93;56.11;99014.00;4942421;28;6776;-76
2023/10/30 04:59:21;;;;;;;;;;;;;;;15.91;55.67;99007.94;4960244;28;8654;-75
2023/10/30 05:01:47;;;;;;;;;;;;;;;15.87;55.57;99008.75;4970713;28;7023;-75
2023/10/30 05:04:15;;;;;;;;;;;;;;;15.83;55.52;99014.75;4973576;28;8363;-77
2023/10/30 05:06:40;;;;;;;;;;;;;;;15.78;55.97;99019.91;4924234;29;7050;-77
2023/10/30 05:09:06;;;;;;;;;;;;;;;15.74;55.97;99025.06;4956613;28;6761;-76
2023/10/30 05:11:37;;;;;;;;;;;;;;;15.69;56.21;99018.16;4964885;28;7960;-76
2023/10/30 05:14:03;;;;;;;;;;;;;;;15.65;56.29;99024.19;4945947;28;7002;-76
2023/10/30 05:16:28;;;;;;;;;;;;;;;15.61;56.05;99025.00;4944862;28;7154;-76
2023/10/30 05:18:54;;;;;;;;;;;;;;;15.58;56.87;99022.41;4963885;28;7246;-75
2023/10/30 05:21:19;;;;;;;;;;;;;;;15.56;56.15;99021.53;4928750;28;6816;-75
2023/10/30 05:23:45;;;;;;;;;;;;;;;15.55;56.64;99024.97;4964579;28;6760;-75
2023/10/30 05:26:11;;;;;;;;;;;;;;;15.55;56.84;99020.66;4948778;28;6860;-76
2023/10/30 05:28:36;;;;;;;;;;;;;;;15.55;56.67;99019.81;4948476;28;6792;-76
2023/10/30 05:31:05;;;;;;;;;;;;;;;15.53;56.68;99017.22;4961771;28;7296;-76
2023/10/30 05:33:31;;;;;;;;;;;;;;;15.52;56.79;99014.63;4936773;28;7161;-75
2023/10/30 05:35:57;;;;;;;;;;;;;;;15.49;56.97;99019.78;4943263;28;10005;-75
2023/10/30 05:38:22;;;;;;;;;;;;;;;15.47;56.97;99018.91;4948577;28;6983;-75
2023/10/30 05:40:48;;;;;;;;;;;;;;;15.45;56.52;99012.84;4947102;28;6769;-75
2023/10/30 05:43:14;;;;;;;;;;;;;;;15.45;56.84;99005.09;4963008;28;6970;-75
2023/10/30 05:45:40;;;;;;;;;;;;;;;15.46;57.26;99007.69;4946679;28;6788;-76
2023/10/30 05:48:06;;;;;;;;;;;;;;;15.47;57.31;99001.69;4948686;28;7229;-75
2023/10/30 05:50:32;;;;;;;;;;;;;;;15.50;56.88;99003.41;4947191;28;6796;-76
2023/10/30 05:52:57;;;;;;;;;;;;;;;15.52;57.04;99004.28;4949071;28;6796;-76
2023/10/30 05:55:23;;;;;;;;;;;;;;;15.51;57.21;98997.41;4944271;28;6862;-76
2023/10/30 05:57:49;;;;;;;;;;;;;;;15.51;57.32;98994.81;4948210;28;6859;-77
2023/10/30 06:00:15;;;;;;;;;;;;;;;15.52;56.84;98993.97;4941909;28;7002;-76
2023/10/30 06:02:40;;;;;;;;;;;;;;;15.52;57.13;98994.84;4942565;28;7504;-76
2023/10/30 06:05:08;;;;;;;;;;;;;;;15.52;57.46;98996.53;4959635;28;7755;-76
2023/10/30 06:07:34;;;;;;;;;;;;;;;15.51;57.06;99007.72;4945313;28;7071;-75
2023/10/30 06:10:04;;;;;;;;;;;;;;;15.47;57.12;99000.84;4939729;28;6981;-75
2023/10/30 06:12:30;;;;;;;;;;;;;;;15.45;56.90;99003.41;4947779;28;9889;-75
2023/10/30 06:14:56;;;;;;;;;;;;;;;15.41;56.84;99002.50;4963207;28;6792;-75
2023/10/30 06:17:21;;;;;;;;;;;;;;;15.39;56.85;99004.22;4945744;28;6827;-75
2023/10/30 06:19:47;;;;;;;;;;;;;;;15.36;57.01;98995.59;4941315;28;7245;-76
2023/10/30 06:22:12;;;;;;;;;;;;;;;15.32;56.90;99002.44;4965237;28;6771;-75
2023/10/30 06:24:38;;;;;;;;;;;;;;;15.30;57.15;99004.16;4947030;28;7170;-75
2023/10/30 06:27:04;;;;;;;;;;;;;;;15.28;57.43;98998.97;4947307;28;6828;-76
2023/10/30 06:29:29;;;;;;;;;;;;;;;15.28;57.58;98998.13;4949784;28;6919;-75
2023/10/30 06:31:55;;;;;;;;;;;;;;;15.25;57.50;99003.25;4956661;23;6756;-75
2023/10/30 06:34:21;;;;;;;;;;;;;;;15.24;57.40;99007.56;4957290;28;7667;-75
2023/10/30 06:36:47;;;;;;;;;;;;;;;15.21;57.38;99004.09;4958254;28;6859;-75
2023/10/30 06:39:17;;;;;;;;;;;;;;;15.19;57.58;99000.66;4956888;28;6844;-75
2023/10/30 06:41:43;;;;;;;;;;;;;;;15.18;57.39;98998.94;4947643;28;7388;-76
2023/10/30 06:44:09;;;;;;;;;;;;;;;15.15;57.11;98997.19;4963533;28;6860;-75
2023/10/30 06:46:34;;;;;;;;;;;;;;;15.12;57.64;98995.44;4952086;28;7044;-76
2023/10/30 06:49:00;;;;;;;;;;;;;;;15.11;57.38;99003.16;4985815;28;7037;-75
2023/10/30 06:51:25;;;;;;;;;;;;;;;15.08;57.18;98998.88;5002442;23;6800;-76
2023/10/30 06:53:51;;;;;;;;;;;;;;;15.06;57.59;99005.72;4980531;28;7198;-75
2023/10/30 06:56:16;;;;;;;;;;;;;;;15.07;57.77;99009.16;4963720;28;6847;-76
2023/10/30 06:58:42;;;;;;;;;;;;;;;15.05;58.27;99003.97;4962208;28;7909;-75
2023/10/30 07:01:08;;;;;;;;;;;;;;;15.03;58.09;98997.97;4979395;28;6811;-75
2023/10/30 07:03:34;;;;;;;;;;;;;;;15.04;58.51;99012.59;4959494;28;6772;-75
2023/10/30 07:06:00;;;;;;;;;;;;;;;15.03;57.91;99010.84;4963405;28;7852;-75
2023/10/30 07:08:26;;;;;;;;;;;;;;;15.04;58.58;99016.91;4965685;28;6926;-75
2023/10/30 07:10:52;;;;;;;;;;;;;;;15.06;58.17;99015.19;4977546;28;6780;-75
2023/10/30 07:13:18;;;;;;;;;;;;;;;15.08;58.52;99008.31;4983217;28;6764;-75
2023/10/30 07:15:43;;;;;;;;;;;;;;;15.10;58.22;99017.81;4968796;28;6827;-75
2023/10/30 07:18:09;;;;;;;;;;;;;;;15.12;58.63;99016.09;4965430;28;6788;-75
2023/10/30 07:20:35;;;;;;;;;;;;;;;15.17;58.42;99007.53;4982917;28;7205;-76
2023/10/30 07:23:00;;;;;;;;;;;;;;;15.22;58.98;99017.03;4970700;28;6780;-75
2023/10/30 07:25:26;;;;;;;;;;;;;;;15.27;58.66;99015.31;4964482;28;7396;-75
2023/10/30 07:27:51;;;;;;;;;;;;;;;15.35;59.14;99017.09;4978578;28;8065;-76
2023/10/30 07:30:17;;;;;;;;;;;;;;;15.43;59.44;99011.97;4966563;28;6950;-75
2023/10/30 07:32:43;;;;;;;;;;;;;;;15.52;58.85;99019.78;4982197;28;6858;-76
2023/10/30 07:35:09;;;;;;;;;;;;;;;15.59;58.98;99013.81;4972368;28;6788;-75
2023/10/30 07:37:35;;;;;;;;;;;;;;;15.67;58.90;99012.13;4970631;28;6768;-75
2023/10/30 07:40:02;;;;;;;;;;;;;;;15.77;58.92;99004.41;4968646;28;6997;-75
2023/10/30 07:42:28;;;;;;;;;;;;;;;15.87;58.88;99007.88;4980936;28;6792;-75
2023/10/30 07:44:54;;;;;;;;;;;;;;;15.95;59.01;99001.06;4949510;28;7157;-76
2023/10/30 07:47:20;;;;;;;;;;;;;;;16.03;58.69;99003.66;4960501;28;7022;-76
2023/10/30 07:49:46;;;;;;;;;;;;;;;16.13;58.54;99002.88;4991963;28;6997;-79
2023/10/30 07:52:11;;;;;;;;;;;;;;;16.21;58.61;99003.72;4953114;28;6943;-76
2023/10/30 07:54:37;;;;;;;;;;;;;;;16.31;58.35;99007.22;4980842;28;6840;-76
2023/10/30 07:57:04;;;;;;;;;;;;;;;16.42;58.46;99007.25;4963471;28;7090;-75
2023/10/30 07:59:32;;;;;;;;;;;;;;;16.54;58.04;99002.94;4961869;28;6864;-73
2023/10/30 08:01:58;;;;;;;;;;;;;;;16.67;58.34;99012.44;4979089;28;6800;-73
2023/10/30 08:04:24;;;;;;;;;;;;;;;16.77;58.32;99010.72;4966451;28;6764;-73
2023/10/30 08:06:49;;;;;;;;;;;;;;;16.89;57.87;99010.72;4982767;28;6792;-73
2023/10/30 08:09:16;;;;;;;;;;;;;;;16.99;57.69;99011.56;4955047;28;7059;-74
2023/10/30 08:11:42;;;;;;;;;;;;;;;17.08;57.61;99006.41;4963352;28;6943;-73
2023/10/30 08:14:08;;;;;;;;;;;;;;;17.18;57.67;99003.81;4981723;28;6927;-73
2023/10/30 08:16:34;;;;;;;;;;;;;;;17.27;57.30;99014.16;4963635;28;6780;-73
2023/10/30 08:19:00;;;;;;;;;;;;;;;17.35;57.34;99006.41;4955817;28;7282;-73
2023/10/30 08:21:26;;;;;;;;;;;;;;;17.43;56.86;98996.00;4981258;28;7137;-73
2023/10/30 08:23:52;;;;;;;;;;;;;;;17.52;57.35;98996.00;4965431;28;6772;-73
2023/10/30 08:26:17;;;;;;;;;;;;;;;17.61;56.81;99000.25;4982177;28;6775;-73
2023/10/30 08:28:45;;;;;;;;;;;;;;;17.69;56.71;99000.25;4965471;28;6780;-74
2023/10/30 08:31:11;;;;;;;;;;;;;;;17.79;57.05;99009.72;4953436;28;7021;-73
2023/10/30 08:33:38;;;;;;;;;;;;;;;17.90;56.25;99013.13;4979875;28;6784;-74
2023/10/30 08:36:04;;;;;;;;;;;;;;;18.01;56.51;99015.69;4965645;28;7153;-73
2023/10/30 08:38:30;;;;;;;;;;;;;;;18.10;55.98;99030.34;4962604;28;6796;-73
2023/10/30 08:40:56;;;;;;;;;;;;;;;18.17;56.01;99019.09;4948275;28;7040;-74
2023/10/30 08:43:21;;;;;;;;;;;;;;;18.24;56.09;99029.41;4980702;28;6836;-73
2023/10/30 08:45:47;;;;;;;;;;;;;;;18.30;56.04;99021.59;4956535;28;7083;-73
2023/10/30 08:48:13;;;;;;;;;;;;;;;18.36;55.39;99016.41;4967585;28;6847;-73
2023/10/30 08:50:40;;;;;;;;;;;;;;;18.42;55.42;99020.69;4980524;28;6796;-74
2023/10/30 08:53:06;;;;;;;;;;;;;;;18.49;55.57;99021.50;4968106;28;6800;-73
2023/10/30 08:55:32;;;;;;;;;;;;;;;18.56;55.49;99018.00;4983339;28;6788;-73
2023/10/30 08:57:57;;;;;;;;;;;;;;;18.62;55.49;99022.28;4975726;28;7870;-73
2023/10/30 09:00:23;;;;;;;;;;;;;;;18.69;55.25;99023.97;4966772;28;7045;-74
2023/10/30 09:02:48;;;;;;;;;;;;;;;18.74;54.79;99030.84;4968919;28;6911;-73
2023/10/30 09:05:15;;;;;;;;;;;;;;;18.78;54.84;99023.88;4983783;28;6768;-74
2023/10/30 09:07:43;;;;;;;;;;;;;;;18.84;54.92;99033.38;4977698;28;7368;-73
2023/10/30 09:10:08;;;;;;;;;;;;;;;18.86;54.79;99036.81;4942336;28;7055;-77
2023/10/30 09:12:34;;;;;;;;;;;;;;;18.88;54.63;99029.88;4966248;28;6897;-78
2023/10/30 09:15:00;;;;;;;;;;;;;;;18.92;54.62;99021.16;4965215;28;6767;-77
2023/10/30 09:17:25;;;;;;;;;;;;;;;18.97;54.57;99026.31;4982543;28;6809;-79
2023/10/30 09:19:51;;;;;;;;;;;;;;;19.01;54.35;99026.31;4950273;28;8606;-79
2023/10/30 09:22:16;;;;;;;;;;;;;;;19.08;54.36;99015.88;4945999;28;6930;-78
2023/10/30 09:24:42;;;;;;;;;;;;;;;19.11;53.94;99008.06;4965471;28;6780;-79
2023/10/30 09:27:09;;;;;;;;;;;;;;;19.14;54.01;99005.44;4983014;28;7190;-79
2023/10/30 09:29:35;;;;;;;;;;;;;;;19.20;53.58;99000.19;4982675;28;6992;-77
2023/10/30 09:32:03;;;;;;;;;;;;;;;19.25;53.94;99002.72;4965995;28;7079;-78
2023/10/30 09:34:30;;;;;;;;;;;;;;;19.32;53.98;99003.56;4942138;28;7093;-79
2023/10/30 09:36:56;;;;;;;;;;;;;;;19.41;53.81;98995.63;4965133;28;7089;-79
2023/10/30 09:39:21;;;;;;;;;;;;;;;19.46;53.32;98999.06;4966425;28;7262;-78
2023/10/30 09:41:48;;;;;;;;;;;;;;;19.54;53.27;99010.22;4963527;28;8726;-78
2023/10/30 09:44:13;;;;;;;;;;;;;;;19.62;52.89;99002.34;4966800;28;6850;-79
2023/10/30 09:46:40;;;;;;;;;;;;;;;19.71;52.94;98998.78;4966098;28;6824;-77
2023/10/30 09:49:08;;;;;;;;;;;;;;;19.79;52.96;98994.34;4950179;28;6963;-79
2023/10/30 09:51:37;;;;;;;;;;;;;;;19.90;52.83;98991.59;4966444;28;6808;-79
2023/10/30 09:54:05;;;;;;;;;;;;;;;19.99;52.80;98982.88;4964782;28;6804;-78
2023/10/30 09:56:34;;;;;;;;;;;;;;;20.05;52.44;98979.34;4978159;28;6975;-79
2023/10/30 09:58:59;;;;;;;;;;;;;;;20.08;52.16;98985.31;4943990;28;7054;-78
2023/10/30 10:01:26;;;;;;;;;;;;;;;20.13;52.09;98990.47;4967881;28;7126;-79
2023/10/30 10:03:52;;;;;;;;;;;;;;;20.19;52.33;98999.94;4965849;28;7139;-78
2023/10/30 10:06:18;;;;;;;;;;;;;;;20.23;51.78;99002.50;4981085;28;7304;-77
2023/10/30 10:08:46;;;;;;;;;;;;;;;20.24;52.10;99009.41;4951516;28;6981;-77
2023/10/30 10:11:12;;;;;;;;;;;;;;;20.21;51.72;99014.63;4980857;28;7102;-79
2023/10/30 10:13:38;;;;;;;;;;;;;;;20.11;51.63;99010.44;4981003;28;8339;-78
2023/10/30 10:16:04;;;;;;;;;;;;;;;19.97;51.24;99008.03;4947999;28;7011;-78
2023/10/30 10:18:34;;;;;;;;;;;;;;;19.79;51.44;99009.09;4977489;28;7285;-79
2023/10/30 10:21:08;;;;;;;;;;;;;;;19.62;51.58;99002.34;4965792;28;6804;-74
2023/10/30 10:23:36;;;;;;;;;;;;;;;19.46;51.99;99004.25;4964198;28;7107;-75
2023/10/30 10:26:14;;;;;;;;;;;;;;;19.34;52.24;99002.63;4954183;28;7273;-75
2023/10/30 10:28:48;;;;;;;;;;;;;;;19.19;52.73;98997.63;4965953;28;6951;-75
2023/10/30 10:31:14;;;;;;;;;;;;;;;19.09;53.24;99004.63;4965732;28;7484;-75
2023/10/30 10:33:40;;;;;;;;;;;;;;;19.00;53.45;99002.94;4965071;28;6967;-76
2023/10/30 10:36:07;;;;;;;;;;;;;;;18.96;54.06;98994.31;4965964;28;6973;-75
2023/10/30 10:38:33;;;;;;;;;;;;;;;18.95;54.29;98983.94;4964897;28;6995;-75
2023/10/30 10:41:00;;;;;;;;;;;;;;;18.93;54.56;98981.38;4960051;28;6884;-75
2023/10/30 10:43:30;;;;;;;;;;;;;;;18.95;55.05;98978.75;4954414;28;6819;-75
2023/10/30 10:45:57;;;;;;;;;;;;;;;18.95;55.14;98977.03;4963014;28;7513;-75
2023/10/30 10:48:25;;;;;;;;;;;;;;;18.97;54.99;98972.69;4966196;28;7072;-75
2023/10/30 10:50:53;;;;;;;;;;;;;;;18.99;55.06;98980.47;4953793;28;6800;-76
2023/10/30 10:53:19;;;;;;;;;;;;;;;18.99;55.38;98977.88;4981159;28;6803;-75
2023/10/30 10:55:48;;;;;;;;;;;;;;;19.02;55.45;98967.47;4963796;28;7079;-76
2023/10/30 10:58:25;;;;;;;;;;;;;;;19.04;55.64;98968.31;4980082;28;7147;-75
2023/10/30 11:00:53;;;;;;;;;;;;;;;19.07;55.37;98965.69;4965337;28;6796;-75
2023/10/30 11:03:21;;;;;;;;;;;;;;;19.06;55.35;98950.13;4979773;28;7102;-77
2023/10/30 11:05:52;;;;;;;;;;;;;;;19.02;55.61;98957.09;4982095;28;6872;-75
2023/10/30 11:08:50;;;;;;;;;;;;;;;18.98;55.25;98943.25;4956260;28;7213;-76
2023/10/30 11:11:40;;;;;;;;;;;;;;;18.96;55.53;98937.22;4960513;28;6909;-76
2023/10/30 11:14:34;;;;;;;;;;;;;;;18.96;55.69;98933.75;4965871;28;7055;-76
2023/10/30 11:17:02;;;;;;;;;;;;;;;18.97;55.85;98925.06;4939422;28;6951;-77
2023/10/30 11:19:29;;;;;;;;;;;;;;;18.96;55.67;98926.81;4968891;28;6796;-75
2023/10/30 11:21:55;;;;;;;;;;;;;;;18.98;55.92;98925.06;4962352;28;7856;-75
2023/10/30 11:24:41;;;;;;;;;;;;;;;18.97;55.40;98917.28;4984061;28;6944;-75
2023/10/30 11:27:27;;;;;;;;;;;;;;;18.93;55.21;98916.47;4982472;28;6804;-75
2023/10/30 11:30:06;;;;;;;;;;;;;;;18.93;55.96;98908.69;4971365;28;6788;-79
2023/10/30 11:32:51;;;;;;;;;;;;;;;18.93;55.84;98902.63;4979488;28;7012;-79
2023/10/30 11:35:21;;;;;;;;;;;;;;;18.94;55.79;98900.03;4967285;28;7311;-78
2023/10/30 11:37:46;;;;;;;;;;;;;;;18.96;55.67;98892.19;4978058;28;7234;-80
2023/10/30 11:40:15;;;;;;;;;;;;;;;18.99;56.29;98889.59;4965279;28;6787;-78
2023/10/30 11:42:43;;;;;;;;;;;;;;;19.00;56.00;98879.22;4963297;28;7244;-79
2023/10/30 11:45:24;;;;;;;;;;;;;;;19.02;56.10;98871.41;4964398;28;6796;-80
2023/10/30 11:48:02;;;;;;;;;;;;;;;19.07;56.49;98863.56;4976822;28;6800;-79
2023/10/30 11:50:53;;;;;;;;;;;;;;;19.18;56.77;98863.47;4965282;28;6875;-79
2023/10/30 11:53:21;;;;;;;;;;;;;;;19.32;56.37;98855.50;4964664;28;7249;-78
2023/10/30 11:55:48;;;;;;;;;;;;;;;19.42;56.04;98860.53;4961843;28;6804;-78
2023/10/30 11:58:14;;;;;;;;;;;;;;;19.53;56.02;98852.63;4964995;28;6804;-80
2023/10/30 12:00:44;;;;;;;;;;;;;;;19.62;55.91;98841.22;4981043;28;6943;-80
2023/10/30 12:03:10;;;;;;;;;;;;;;;19.69;55.02;98842.00;4946928;28;9265;-78
2023/10/30 12:05:36;;;;;;;;;;;;;;;19.71;55.19;98829.84;4965895;28;6780;-79
2023/10/30 12:08:04;;;;;;;;;;;;;;;19.75;54.94;98825.44;4965808;28;6788;-80
2023/10/30 12:10:33;;;;;;;;;;;;;;;19.77;54.41;98819.34;4981068;28;7212;-76
2023/10/30 12:12:59;;;;;;;;;;;;;;;19.80;54.25;98801.13;4964762;28;6820;-79
2023/10/30 12:15:28;;;;;;;;;;;;;;;19.84;54.15;98802.78;4966003;28;6792;-77
2023/10/30 12:17:55;;;;;;;;;;;;;;;19.84;53.90;98797.59;4963913;28;6899;-76
2023/10/30 12:20:21;;;;;;;;;;;;;;;19.85;54.22;98795.84;4962402;28;7344;-77
2023/10/30 12:22:47;;;;;;;;;;;;;;;19.87;54.13;98794.09;4961478;28;6776;-78
2023/10/30 12:25:17;;;;;;;;;;;;;;;19.90;53.87;98798.38;4963767;28;6983;-80
2023/10/30 12:27:45;;;;;;;;;;;;;;;19.96;54.12;98780.09;4962746;28;6800;-77
2023/10/30 12:30:13;;;;;;;;;;;;;;;19.99;54.08;98777.47;4940777;28;6959;-79
2023/10/30 12:32:39;;;;;;;;;;;;;;;19.98;53.26;98776.59;4954283;28;7188;-77
2023/10/30 12:35:23;;;;;;;;;;;;;;;19.96;52.90;98774.91;4976819;28;6767;-78
2023/10/30 12:37:48;;;;;;;;;;;;;;;19.90;52.88;98772.38;4962902;28;6999;-80
2023/10/30 12:40:14;;;;;;;;;;;;;;;19.85;52.93;98762.91;4978881;28;6772;-73
2023/10/30 12:42:46;;;;;;;;;;;;;;;19.84;52.96;98750.78;4962234;28;6823;-73
2023/10/30 12:45:14;;;;;;;;;;;;;;;19.82;53.15;98749.09;4964163;28;7055;-74
2023/10/30 12:47:43;;;;;;;;;;;;;;;19.80;53.11;98740.47;4963542;28;6820;-73
2023/10/30 12:50:11;;;;;;;;;;;;;;;19.79;53.21;98729.19;4954473;28;8698;-74
2023/10/30 12:52:37;;;;;;;;;;;;;;;19.77;53.13;98723.19;4953190;28;6992;-73
2023/10/30 12:55:04;;;;;;;;;;;;;;;19.76;53.17;98703.28;4960861;28;7242;-73
2023/10/30 12:57:29;;;;;;;;;;;;;;;19.78;53.39;98711.06;4961193;28;7241;-74